Time,TemperatureF,DewpointF,PressureIn,WindDirection,WindDirectionDegrees,WindSpeedMPH,WindSpeedGustMPH,Humidity,HourlyPrecipIn,Conditions,Clouds,dailyrainin,SolarRadiationWatts/m^2,SoftwareType,DateUTC
2013-08-13 05:52:00,40.0,37.0,-100.00,NNE,26,0.0,3.0,88,0.00,,,0.00,0.000000,,2013-08-13 12:52:00,
2013-08-13 06:01:00,40.0,37.0,-100.00,NNE,26,0.0,3.0,88,0.00,,,0.00,0.000000,,2013-08-13 13:01:00,
2013-08-13 06:11:00,40.0,37.0,-100.00,NNE,26,0.0,3.0,88,0.00,,,0.00,0.000000,,2013-08-13 13:11:00,
2013-08-13 06:42:00,41.0,38.0,-100.00,SSW,200,1.0,5.0,88,0.00,,,0.00,15.000000,,2013-08-13 13:42:00,
2013-08-13 06:52:00,41.0,38.0,-100.00,SSW,200,1.0,5.0,88,0.00,,,0.00,15.000000,,2013-08-13 13:52:00,
2013-08-13 07:02:00,41.0,38.0,-100.00,SSW,200,1.0,5.0,88,0.00,,,0.00,15.000000,,2013-08-13 14:02:00,
2013-08-13 07:11:00,41.0,38.0,-100.00,SSW,200,1.0,5.0,88,0.00,,,0.00,15.000000,,2013-08-13 14:11:00,
2013-08-13 07:42:00,55.0,42.0,-100.00,SW,221,5.0,8.0,62,-99.99,,,0.00,172.000000,,2013-08-13 14:42:00,
2013-08-13 07:52:00,55.0,42.0,-100.00,SW,221,5.0,8.0,62,-99.99,,,0.00,172.000000,,2013-08-13 14:52:00,
2013-08-13 08:02:00,55.0,42.0,-100.00,SW,221,5.0,8.0,62,-99.99,,,0.00,172.000000,,2013-08-13 15:02:00,
2013-08-13 08:11:00,55.0,42.0,-100.00,SW,221,5.0,8.0,62,-99.99,,,0.00,172.000000,,2013-08-13 15:11:00,
2013-08-13 08:54:00,71.0,46.0,-100.00,SSE,158,2.0,7.0,41,0.00,,,0.00,379.000000,,2013-08-13 15:54:00,
2013-08-13 09:03:00,71.0,46.0,-100.00,SSE,158,2.0,7.0,41,0.00,,,0.00,379.000000,,2013-08-13 16:03:00,
2013-08-13 09:13:00,71.0,46.0,-100.00,SSE,158,2.0,7.0,41,0.00,,,0.00,379.000000,,2013-08-13 16:13:00,
2013-08-13 09:16:00,76.0,39.0,-100.00,SSE,161,7.0,11.0,26,0.00,,,-99.99,585.000000,,2013-08-13 16:16:00,
2013-08-13 09:45:00,76.0,39.0,-100.00,SSE,161,7.0,11.0,26,0.00,,,-99.99,585.000000,,2013-08-13 16:45:00,
2013-08-13 09:54:00,76.0,39.0,-100.00,SSE,161,7.0,11.0,26,0.00,,,-99.99,585.000000,,2013-08-13 16:54:00,
2013-08-13 10:05:00,76.0,39.0,-100.00,SSE,161,7.0,11.0,26,0.00,,,-99.99,585.000000,,2013-08-13 17:05:00,
2013-08-13 10:46:00,-999.0,-99.9,-100.00,SSW,193,8.0,21.0,-999,0.00,,,0.00,759.000000,,2013-08-13 17:46:00,
2013-08-13 10:56:00,76.0,37.0,-100.00,SSW,193,8.0,21.0,24,0.00,,,0.00,759.000000,,2013-08-13 17:56:00,
2013-08-13 11:05:00,76.0,37.0,-100.00,SSW,193,8.0,21.0,24,0.00,,,0.00,759.000000,,2013-08-13 18:05:00,
2013-08-13 11:15:00,76.0,37.0,-100.00,SSW,193,8.0,21.0,24,0.00,,,0.00,759.000000,,2013-08-13 18:15:00,
2013-08-13 11:44:00,78.0,36.0,-100.00,SW,216,10.0,23.0,22,0.00,,,0.00,892.000000,,2013-08-13 18:44:00,
2013-08-13 11:56:00,78.0,36.0,-100.00,SW,216,10.0,23.0,22,0.00,,,0.00,892.000000,,2013-08-13 18:56:00,
2013-08-13 12:04:00,78.0,36.0,-100.00,SW,216,10.0,23.0,22,0.00,,,0.00,892.000000,,2013-08-13 19:04:00,
2013-08-13 12:14:00,78.0,36.0,-100.00,SW,216,10.0,23.0,22,0.00,,,0.00,892.000000,,2013-08-13 19:14:00,
2013-08-13 12:44:00,79.0,37.0,-100.00,SSE,160,8.0,20.0,22,0.00,,,0.00,944.000000,,2013-08-13 19:44:00,
2013-08-13 12:55:00,79.0,37.0,-100.00,SSE,160,8.0,20.0,22,0.00,,,0.00,944.000000,,2013-08-13 19:55:00,
2013-08-13 13:04:00,79.0,37.0,-100.00,SSE,160,8.0,20.0,22,0.00,,,0.00,944.000000,,2013-08-13 20:04:00,
2013-08-13 13:15:00,79.0,37.0,-100.00,SSE,160,8.0,20.0,22,0.00,,,0.00,944.000000,,2013-08-13 20:15:00,
2013-08-13 13:45:00,80.0,37.0,-100.00,SSE,166,10.0,18.0,21,0.00,,,0.00,979.000000,,2013-08-13 20:45:00,
2013-08-13 13:53:00,80.0,37.0,-100.00,SSE,166,10.0,18.0,21,0.00,,,0.00,979.000000,,2013-08-13 20:53:00,
2013-08-13 14:01:00,80.0,37.0,-100.00,SSE,166,10.0,18.0,21,0.00,,,0.00,979.000000,,2013-08-13 21:01:00,
2013-08-13 14:11:00,80.0,37.0,-100.00,SSE,166,10.0,18.0,21,0.00,,,0.00,979.000000,,2013-08-13 21:11:00,
2013-08-13 14:46:00,81.0,37.0,-100.00,WSW,252,10.0,25.0,21,0.00,,,0.00,939.000000,,2013-08-13 21:46:00,
2013-08-13 14:54:00,81.0,37.0,-100.00,WSW,252,10.0,25.0,21,0.00,,,0.00,939.000000,,2013-08-13 21:54:00,
2013-08-13 15:03:00,81.0,37.0,-100.00,WSW,252,10.0,25.0,21,0.00,,,0.00,939.000000,,2013-08-13 22:03:00,
2013-08-13 15:13:00,81.0,37.0,-100.00,WSW,252,10.0,25.0,21,0.00,,,0.00,939.000000,,2013-08-13 22:13:00,
2013-08-13 15:50:00,79.0,36.0,-100.00,SSE,159,6.0,22.0,21,0.00,,,0.00,663.000000,,2013-08-13 22:50:00,
2013-08-13 15:57:00,79.0,36.0,-100.00,SSE,159,6.0,22.0,21,0.00,,,0.00,663.000000,,2013-08-13 22:57:00,
2013-08-13 16:03:00,79.0,36.0,-100.00,SSE,159,6.0,22.0,21,0.00,,,0.00,663.000000,,2013-08-13 23:03:00,
2013-08-13 16:13:00,79.0,36.0,-100.00,SSE,159,6.0,22.0,21,0.00,,,0.00,663.000000,,2013-08-13 23:13:00,
2013-08-13 16:47:00,81.0,36.0,-100.00,South,173,8.0,16.0,20,0.00,,,0.00,636.000000,,2013-08-13 23:47:00,
2013-08-13 16:57:00,81.0,36.0,-100.00,South,173,8.0,16.0,20,0.00,,,0.00,636.000000,,2013-08-13 23:57:00,
2013-08-13 17:03:00,81.0,36.0,-100.00,South,173,8.0,16.0,20,0.00,,,0.00,636.000000,,2013-08-14 00:03:00,
2013-08-13 17:11:00,81.0,36.0,-100.00,South,173,8.0,16.0,20,0.00,,,0.00,636.000000,,2013-08-14 00:11:00,
2013-08-13 17:42:00,80.0,34.0,-100.00,SSW,196,8.0,19.0,19,0.00,,,-99.99,411.000000,,2013-08-14 00:42:00,
2013-08-13 17:52:00,80.0,34.0,-100.00,SSW,196,8.0,19.0,19,0.00,,,-99.99,411.000000,,2013-08-14 00:52:00,
2013-08-13 18:01:00,80.0,34.0,-100.00,SSW,196,8.0,19.0,19,0.00,,,-99.99,411.000000,,2013-08-14 01:01:00,
2013-08-13 18:11:00,80.0,34.0,-100.00,SSW,196,8.0,19.0,19,0.00,,,-99.99,411.000000,,2013-08-14 01:11:00,
2013-08-13 18:42:00,78.0,34.0,-100.00,SSW,212,9.0,16.0,20,0.00,,,0.00,290.000000,,2013-08-14 01:42:00,
2013-08-13 18:52:00,78.0,34.0,-100.00,SSW,212,9.0,16.0,20,0.00,,,0.00,290.000000,,2013-08-14 01:52:00,
2013-08-13 19:02:00,78.0,34.0,-100.00,SSW,212,9.0,16.0,20,0.00,,,0.00,290.000000,,2013-08-14 02:02:00,
2013-08-13 19:11:00,78.0,34.0,-100.00,SSW,212,9.0,16.0,20,0.00,,,0.00,290.000000,,2013-08-14 02:11:00,
2013-08-13 19:42:00,71.0,37.0,-100.00,SW,219,3.0,12.0,29,0.00,,,0.00,72.000000,,2013-08-14 02:42:00,
2013-08-13 19:52:00,71.0,37.0,-100.00,SW,219,3.0,12.0,29,0.00,,,0.00,72.000000,,2013-08-14 02:52:00,
2013-08-13 20:01:00,71.0,37.0,-100.00,SW,219,3.0,12.0,29,0.00,,,0.00,72.000000,,2013-08-14 03:01:00,
2013-08-13 20:11:00,71.0,37.0,-100.00,SW,219,3.0,12.0,29,0.00,,,0.00,72.000000,,2013-08-14 03:11:00,